Terminal Aerodrome Forecast
Issued by NWS Charleston, WV

Current Version | Previous Version | Text Only | Print | Product List | Glossary Off
Versions: 1 2 3 4 5 6 7 8 9 10 11 12 13 14 15 16 17 18 19 20 21 22 23 24 25 26 27

000
FTUS41 KRLX 302300 RRA
TAFHTS
TAF
KHTS 302346Z 3100/3124 20006KT P6SM SCT250
     FM310700 21005KT 3SM SHRA VCTS OVC060CB
     FM310900 19006KT P6SM VCSH OVC035 PROB30 3109/3112 5SM -TSRA
      OVC030CB
     FM311400 23006KT 4SM SHRA VCTS OVC025CB PROB30 3115/3118 2SM
      -TSRA OVC025CB
     FM311800 23008KT P6SM OVC035=

USA.gov is the U.S. government's official web portal to all federal, state and local government web resources and services.